Time;durP1;ratioP1;P1;durP2;ratioP2;P2;SDS_P1;SDS_P2;PMS_P1;PMS_P2;Temp;Humidity;BMP_temperature;BMP_pressure;BME280_temperature;BME280_humidity;BME280_pressure;Samples;Min_cycle;Max_cycle;Signal;HPM_P1;HPM_P2
2022/12/30 00:00:30;;;;;;;20.88;2.90;;;6.30;99.90;;;;;;5161128;27;20038;-57
2022/12/30 00:02:56;;;;;;;20.90;3.97;;;6.40;99.90;;;;;;5160279;27;20053;-57
2022/12/30 00:05:21;;;;;;;18.23;3.30;;;6.20;99.90;;;;;;5160929;27;20053;-57
2022/12/30 00:07:47;;;;;;;18.17;3.22;;;6.30;99.90;;;;;;5160295;27;20058;-58
2022/12/30 00:10:13;;;;;;;17.25;3.03;;;6.60;99.90;;;;;;5160506;27;20060;-57
2022/12/30 00:35:21;;;;;;;20.10;3.10;;;6.20;99.90;;;;;;5154555;27;20532;-58
2022/12/30 00:37:46;;;;;;;16.05;2.47;;;6.30;99.90;;;;;;5142595;27;20050;-57
2022/12/30 00:40:13;;;;;;;16.98;3.13;;;6.30;99.90;;;;;;5139110;27;20039;-58
2022/12/30 00:45:25;;;;;;;19.33;2.95;;;6.20;99.90;;;;;;5159454;27;20062;-58
2022/12/30 00:47:51;;;;;;;15.70;2.90;;;6.30;99.90;;;;;;5160276;27;20607;-58
2022/12/30 00:58:30;;;;;;;19.55;2.90;;;6.30;99.90;;;;;;5122866;27;20077;-59
2022/12/30 01:00:56;;;;;;;18.15;3.42;;;6.20;99.90;;;;;;5159980;27;20039;-57
2022/12/30 01:03:21;;;;;;;23.45;2.90;;;6.20;99.90;;;;;;5159401;27;20106;-58
2022/12/30 01:05:47;;;;;;;22.45;3.28;;;6.10;99.90;;;;;;5141001;27;20046;-58
2022/12/30 01:08:13;;;;;;;21.00;4.28;;;6.10;99.90;;;;;;5159558;27;20037;-57
2022/12/30 01:10:39;;;;;;;16.73;2.88;;;6.20;99.90;;;;;;5159350;27;20087;-57
2022/12/30 01:13:06;;;;;;;17.15;3.05;;;6.20;99.90;;;;;;5159293;27;20047;-58
2022/12/30 01:15:31;;;;;;;20.42;2.83;;;6.20;99.90;;;;;;5157045;27;20035;-57
2022/12/30 01:17:57;;;;;;;17.52;3.05;;;6.00;99.90;;;;;;5159558;27;20057;-57
2022/12/30 01:20:23;;;;;;;19.52;4.63;;;6.10;99.90;;;;;;5158724;27;20081;-57
2022/12/30 01:22:48;;;;;;;16.52;3.47;;;6.00;99.90;;;;;;5142286;27;20047;-58
2022/12/30 01:25:14;;;;;;;18.27;3.72;;;6.10;99.90;;;;;;5138548;28;20134;-57
2022/12/30 01:27:40;;;;;;;18.15;3.65;;;5.90;99.90;;;;;;5138230;27;20061;-57
2022/12/30 01:30:06;;;;;;;17.70;3.63;;;6.10;99.90;;;;;;5138473;28;20047;-57
2022/12/30 01:32:33;;;;;;;16.55;2.70;;;6.00;99.90;;;;;;5139159;27;20814;-58
2022/12/30 01:34:59;;;;;;;16.88;3.15;;;6.00;99.90;;;;;;5138726;27;20039;-57
2022/12/30 01:37:24;;;;;;;17.88;3.08;;;5.90;99.90;;;;;;5137980;28;20104;-57
2022/12/30 01:39:50;;;;;;;19.55;3.20;;;5.90;99.90;;;;;;5138785;28;20099;-58
2022/12/30 01:42:25;;;;;;;23.02;4.80;;;5.90;99.90;;;;;;5137831;27;20595;-57
2022/12/30 01:44:56;;;;;;;23.05;3.83;;;5.80;99.90;;;;;;5146493;27;20134;-55
2022/12/30 01:47:24;;;;;;;18.27;3.22;;;5.80;99.90;;;;;;5159532;27;20043;-57
2022/12/30 01:49:54;;;;;;;14.70;3.10;;;5.60;99.90;;;;;;5122356;28;20059;-56
2022/12/30 01:52:24;;;;;;;19.48;3.40;;;5.80;99.90;;;;;;5138629;28;20047;-58
2022/12/30 01:54:51;;;;;;;19.30;3.35;;;5.70;99.90;;;;;;5142578;27;20687;-58
2022/12/30 01:57:19;;;;;;;29.73;5.80;;;5.60;99.90;;;;;;5149083;27;20047;-57
2022/12/30 01:59:45;;;;;;;18.23;3.20;;;5.60;99.90;;;;;;5138185;28;20077;-58
2022/12/30 02:02:11;;;;;;;22.38;4.45;;;5.70;99.90;;;;;;5137751;28;20050;-57
2022/12/30 02:04:37;;;;;;;19.08;3.20;;;5.50;99.90;;;;;;5140842;27;20039;-56
2022/12/30 02:07:21;;;;;;;19.27;3.00;;;5.60;99.90;;;;;;5102120;28;20072;-57
2022/12/30 02:09:48;;;;;;;18.50;3.53;;;5.50;99.90;;;;;;5138557;28;20039;-57
2022/12/30 02:12:13;;;;;;;17.88;3.03;;;5.50;99.90;;;;;;5119439;28;20047;-57
2022/12/30 02:14:42;;;;;;;18.85;3.35;;;5.60;99.90;;;;;;5137936;28;20043;-56
2022/12/30 02:17:22;;;;;;;18.88;3.38;;;5.50;99.90;;;;;;5137998;28;20096;-57
2022/12/30 02:19:56;;;;;;;16.92;3.38;;;5.50;99.90;;;;;;5137775;28;20089;-57
2022/12/30 02:22:43;;;;;;;23.20;4.53;;;5.50;99.90;;;;;;5137935;28;20095;-57
2022/12/30 02:25:26;;;;;;;19.90;4.20;;;5.50;99.90;;;;;;5137806;28;20088;-58
2022/12/30 02:28:36;;;;;;;18.25;3.15;;;5.40;99.90;;;;;;5119530;28;20062;-57
2022/12/30 02:31:19;;;;;;;25.55;4.72;;;5.30;99.90;;;;;;5138207;28;20502;-57
2022/12/30 02:34:08;;;;;;;19.58;3.00;;;5.40;99.90;;;;;;5137683;28;20035;-57
2022/12/30 02:37:07;;;;;;;22.70;3.35;;;5.50;99.90;;;;;;5119253;28;20082;-57
2022/12/30 02:39:45;;;;;;;18.10;2.97;;;5.30;99.90;;;;;;5138407;27;20451;-57
2022/12/30 02:45:15;;;;;;;18.75;3.63;;;5.40;99.90;;;;;;5141211;27;20132;-58
2022/12/30 02:47:51;;;;;;;19.83;3.72;;;5.40;99.90;;;;;;5123248;27;20047;-57
2022/12/30 02:53:17;;;;;;;19.83;4.13;;;5.50;99.90;;;;;;5160204;27;20080;-58
2022/12/30 02:55:42;;;;;;;17.52;3.40;;;5.30;99.90;;;;;;5149747;27;20082;-57
2022/12/30 02:58:08;;;;;;;21.85;3.38;;;5.30;99.90;;;;;;5140937;27;20035;-58
2022/12/30 03:03:59;;;;;;;26.98;4.00;;;5.50;99.90;;;;;;5140708;27;20061;-57
2022/12/30 03:06:57;;;;;;;22.38;3.75;;;5.40;99.90;;;;;;5141984;27;20107;-57
2022/12/30 03:09:33;;;;;;;18.65;3.42;;;5.30;99.90;;;;;;5141247;27;20051;-57
2022/12/30 03:12:17;;;;;;;20.75;3.60;;;5.50;99.90;;;;;;5140133;27;20058;-57
2022/12/30 03:14:57;;;;;;;31.35;3.80;;;5.40;99.90;;;;;;5140934;27;20035;-57
2022/12/30 03:17:28;;;;;;;23.50;3.33;;;5.30;99.90;;;;;;5141031;27;20087;-57
2022/12/30 03:19:59;;;;;;;21.58;3.13;;;5.40;99.90;;;;;;5140304;27;20040;-57
2022/12/30 03:27:58;;;;;;;24.30;3.70;;;5.30;99.90;;;;;;5140453;27;20085;-57
2022/12/30 03:30:24;;;;;;;19.90;4.03;;;5.50;99.90;;;;;;5141063;27;20051;-56
2022/12/30 03:32:50;;;;;;;21.38;3.75;;;5.40;99.90;;;;;;5140091;27;20064;-58
2022/12/30 03:35:16;;;;;;;17.48;3.35;;;5.50;99.90;;;;;;5140961;27;20039;-57
2022/12/30 03:37:48;;;;;;;25.48;4.57;;;5.40;99.90;;;;;;5121414;27;20069;-57
2022/12/30 03:40:23;;;;;;;22.00;3.35;;;5.30;99.90;;;;;;5140712;27;20065;-57
2022/12/30 03:42:52;;;;;;;16.15;3.03;;;5.50;99.90;;;;;;5150880;27;20039;-58
2022/12/30 03:45:19;;;;;;;18.25;3.13;;;5.30;99.90;;;;;;5124971;27;20092;-58
2022/12/30 03:47:44;;;;;;;24.73;3.92;;;5.10;99.90;;;;;;5142743;27;20039;-57
2022/12/30 03:50:10;;;;;;;20.35;3.67;;;5.30;99.90;;;;;;5139707;27;20047;-57
2022/12/30 03:52:36;;;;;;;23.55;4.22;;;5.30;99.90;;;;;;5139645;27;20043;-58
2022/12/30 03:55:02;;;;;;;20.02;3.17;;;5.30;99.90;;;;;;5150702;27;20038;-57
2022/12/30 03:57:28;;;;;;;26.45;4.78;;;5.30;99.90;;;;;;5159779;27;20125;-58
2022/12/30 03:59:53;;;;;;;27.30;5.03;;;5.20;99.90;;;;;;5125273;27;20085;-57
2022/12/30 04:02:19;;;;;;;22.67;4.13;;;5.10;99.90;;;;;;5160347;27;20046;-58
2022/12/30 04:04:45;;;;;;;23.45;4.18;;;5.00;99.90;;;;;;5160891;27;20046;-58
2022/12/30 04:07:11;;;;;;;25.80;4.32;;;5.20;99.90;;;;;;5141088;27;20216;-59
2022/12/30 04:09:37;;;;;;;21.10;4.15;;;4.90;99.90;;;;;;5158963;27;20050;-58
2022/12/30 04:12:03;;;;;;;18.40;4.05;;;5.20;99.90;;;;;;5159902;27;20522;-58
2022/12/30 04:14:29;;;;;;;20.60;3.67;;;5.00;99.90;;;;;;5160609;27;20031;-58
2022/12/30 04:16:54;;;;;;;26.85;4.63;;;5.10;99.90;;;;;;5160196;27;20094;-57
2022/12/30 04:19:20;;;;;;;16.80;4.38;;;4.80;99.90;;;;;;5160141;27;20117;-58
2022/12/30 04:21:46;;;;;;;18.75;5.55;;;4.80;99.90;;;;;;5160720;27;20049;-58
2022/12/30 04:24:11;;;;;;;18.95;4.35;;;4.80;99.90;;;;;;5142384;27;20035;-58
2022/12/30 04:26:37;;;;;;;18.70;4.22;;;4.80;99.90;;;;;;5140049;27;20066;-56
2022/12/30 04:29:03;;;;;;;21.98;4.50;;;4.90;99.90;;;;;;5140056;27;20050;-56
2022/12/30 04:31:28;;;;;;;20.83;3.92;;;4.80;99.90;;;;;;5121529;27;20047;-58
2022/12/30 04:33:54;;;;;;;17.15;5.25;;;4.90;99.90;;;;;;5120918;27;20557;-57
2022/12/30 04:36:21;;;;;;;21.25;4.28;;;4.80;99.90;;;;;;5120570;27;20406;-58
2022/12/30 04:38:46;;;;;;;16.38;3.85;;;4.90;99.90;;;;;;5139784;27;20099;-58
2022/12/30 04:41:13;;;;;;;27.23;5.68;;;4.90;99.90;;;;;;5138913;27;20088;-57
2022/12/30 04:43:38;;;;;;;25.52;4.40;;;5.00;99.90;;;;;;5120541;27;20479;-58
2022/12/30 04:46:05;;;;;;;17.20;4.45;;;4.50;99.90;;;;;;5120479;27;20053;-58
2022/12/30 04:48:31;;;;;;;21.38;4.57;;;5.00;99.90;;;;;;5139686;27;20066;-57
2022/12/30 04:50:57;;;;;;;19.40;4.60;;;4.90;99.90;;;;;;5129202;27;20054;-57
2022/12/30 04:53:25;;;;;;;18.63;3.92;;;5.00;99.90;;;;;;5138450;27;20050;-58
2022/12/30 04:55:53;;;;;;;25.08;5.75;;;5.20;99.90;;;;;;5139300;27;20039;-58
2022/12/30 04:58:19;;;;;;;28.90;6.32;;;4.90;99.90;;;;;;5138568;27;20039;-58
2022/12/30 05:00:46;;;;;;;14.55;4.40;;;4.80;99.90;;;;;;5139200;27;20047;-57
2022/12/30 05:03:12;;;;;;;15.43;4.40;;;4.90;99.90;;;;;;5137565;27;20039;-58
2022/12/30 05:05:38;;;;;;;15.57;4.50;;;4.90;99.90;;;;;;5139045;27;20094;-58
2022/12/30 05:08:04;;;;;;;20.55;4.95;;;5.10;99.90;;;;;;5138602;27;20114;-58
2022/12/30 05:10:29;;;;;;;23.08;4.43;;;5.20;99.90;;;;;;5138606;27;20352;-58
2022/12/30 05:12:55;;;;;;;17.45;3.95;;;5.00;99.90;;;;;;5138784;27;20061;-58
2022/12/30 05:15:20;;;;;;;17.23;3.72;;;5.10;99.90;;;;;;5138322;27;20043;-58
2022/12/30 05:17:46;;;;;;;18.77;4.55;;;5.30;99.90;;;;;;5138778;27;20069;-58
2022/12/30 05:20:12;;;;;;;19.98;4.45;;;5.20;99.90;;;;;;5137959;27;20115;-58
2022/12/30 05:22:38;;;;;;;20.05;4.63;;;5.20;99.90;;;;;;5139020;27;20039;-58
2022/12/30 05:27:48;;;;;;;22.77;4.68;;;5.20;99.90;;;;;;5158829;27;20465;-59
2022/12/30 05:30:14;;;;;;;19.05;5.03;;;5.50;99.90;;;;;;5122386;27;20098;-58
2022/12/30 05:32:40;;;;;;;21.42;5.07;;;5.40;99.90;;;;;;5138154;27;20053;-58
2022/12/30 05:35:06;;;;;;;20.40;5.20;;;5.30;99.90;;;;;;5139117;28;20035;-58
2022/12/30 05:37:31;;;;;;;17.80;6.43;;;5.20;99.90;;;;;;5139497;27;20073;-59
2022/12/30 05:39:57;;;;;;;19.90;6.32;;;5.30;99.90;;;;;;5158415;27;20898;-59
2022/12/30 05:42:23;;;;;;;21.13;6.57;;;5.20;99.90;;;;;;5139034;27;20046;-58
2022/12/30 05:44:48;;;;;;;23.80;7.57;;;5.20;99.90;;;;;;5155378;27;20703;-58
2022/12/30 05:47:14;;;;;;;24.13;8.13;;;5.40;99.90;;;;;;5120332;28;20507;-58
2022/12/30 05:49:40;;;;;;;22.20;8.55;;;5.30;99.90;;;;;;5138032;28;20107;-58
2022/12/30 05:52:05;;;;;;;27.05;9.23;;;5.30;99.90;;;;;;5144689;27;20514;-58
2022/12/30 05:54:31;;;;;;;26.25;9.27;;;5.40;99.90;;;;;;5156320;27;20545;-58
2022/12/30 05:56:56;;;;;;;24.85;9.90;;;5.50;99.90;;;;;;5138821;27;20038;-57
2022/12/30 05:59:22;;;;;;;23.02;9.18;;;5.50;99.90;;;;;;5138214;28;20078;-58
2022/12/30 06:01:48;;;;;;;24.15;10.25;;;5.50;99.90;;;;;;5153079;27;20042;-58
2022/12/30 06:04:15;;;;;;;21.15;9.23;;;5.60;99.90;;;;;;5159809;27;20506;-58
2022/12/30 06:06:41;;;;;;;18.15;9.40;;;5.50;99.90;;;;;;5146692;27;20047;-58
2022/12/30 06:09:08;;;;;;;21.42;8.35;;;5.70;99.90;;;;;;5138729;28;20046;-58
2022/12/30 06:11:34;;;;;;;28.85;8.95;;;5.50;99.90;;;;;;5149221;27;20043;-58
2022/12/30 06:13:59;;;;;;;22.35;8.02;;;5.70;99.90;;;;;;5138614;27;20053;-58
2022/12/30 06:16:25;;;;;;;20.25;8.75;;;5.40;99.90;;;;;;5142706;27;20494;-58
2022/12/30 06:18:51;;;;;;;18.70;6.82;;;5.40;99.90;;;;;;5142358;27;20149;-59
2022/12/30 06:21:17;;;;;;;16.63;6.40;;;5.30;99.90;;;;;;5142411;27;20499;-58
2022/12/30 06:23:42;;;;;;;16.88;5.65;;;5.40;99.90;;;;;;5141663;27;20077;-57
2022/12/30 06:26:08;;;;;;;18.77;5.78;;;5.50;99.90;;;;;;5143618;27;20084;-58
2022/12/30 06:28:33;;;;;;;19.92;7.13;;;5.40;99.90;;;;;;5123542;27;20073;-58
2022/12/30 06:30:59;;;;;;;19.77;7.15;;;5.40;99.90;;;;;;5106965;27;20529;-58
2022/12/30 06:33:25;;;;;;;13.98;5.57;;;5.20;99.90;;;;;;5141731;27;20035;-57
2022/12/30 06:35:51;;;;;;;21.90;5.85;;;5.40;99.90;;;;;;5142151;27;20050;-58
2022/12/30 06:38:17;;;;;;;19.58;5.35;;;5.10;99.90;;;;;;5142070;27;20050;-58
2022/12/30 06:40:44;;;;;;;16.35;5.40;;;5.10;99.90;;;;;;5145139;27;20164;-57
2022/12/30 06:43:10;;;;;;;15.18;5.07;;;5.20;99.90;;;;;;5144013;27;20505;-58
2022/12/30 06:45:36;;;;;;;14.68;4.82;;;5.10;99.90;;;;;;5161836;27;20796;-58
2022/12/30 06:48:04;;;;;;;14.70;4.47;;;5.10;99.90;;;;;;5162839;27;20063;-58
2022/12/30 06:50:30;;;;;;;16.73;4.75;;;4.90;99.90;;;;;;5140872;27;20114;-58
2022/12/30 06:52:55;;;;;;;17.80;4.90;;;4.80;99.90;;;;;;5126090;27;20078;-58
2022/12/30 06:55:23;;;;;;;15.13;5.50;;;4.90;99.90;;;;;;5139395;27;20172;-57
2022/12/30 06:57:49;;;;;;;16.33;4.43;;;4.90;99.90;;;;;;5158063;27;20075;-58
2022/12/30 07:00:16;;;;;;;21.83;4.43;;;4.90;99.90;;;;;;5158752;27;20042;-58
2022/12/30 07:02:41;;;;;;;17.35;4.10;;;4.60;99.90;;;;;;5157232;27;20261;-58
2022/12/30 07:05:08;;;;;;;17.95;4.75;;;4.60;99.90;;;;;;5158095;27;20054;-58
2022/12/30 07:07:34;;;;;;;14.15;3.85;;;4.80;99.90;;;;;;5156114;27;20070;-58
2022/12/30 07:10:00;;;;;;;14.02;3.78;;;4.60;99.90;;;;;;5158667;27;20046;-58
2022/12/30 07:12:25;;;;;;;14.80;3.70;;;4.50;99.90;;;;;;5144375;27;20046;-57
2022/12/30 07:14:51;;;;;;;18.05;3.60;;;4.50;99.90;;;;;;5137253;27;20066;-58
2022/12/30 07:17:17;;;;;;;17.85;4.50;;;4.60;99.90;;;;;;5119405;27;20054;-58
2022/12/30 07:19:43;;;;;;;13.35;3.50;;;4.70;99.90;;;;;;5138302;27;20065;-58
2022/12/30 07:22:11;;;;;;;12.68;3.88;;;4.50;99.90;;;;;;5140435;27;20045;-58
2022/12/30 07:24:37;;;;;;;16.27;4.05;;;4.50;99.90;;;;;;5119883;27;20582;-58
2022/12/30 07:27:02;;;;;;;14.25;3.40;;;4.70;99.90;;;;;;5130362;27;20517;-57
2022/12/30 07:29:28;;;;;;;16.25;4.10;;;4.70;99.90;;;;;;5157283;27;20094;-57
2022/12/30 07:31:54;;;;;;;13.13;3.15;;;4.70;99.90;;;;;;5139553;27;20063;-58
2022/12/30 07:34:19;;;;;;;14.68;3.03;;;4.40;99.90;;;;;;5156920;27;20058;-57
2022/12/30 07:36:45;;;;;;;17.50;3.15;;;4.70;99.90;;;;;;5157521;27;20035;-58
2022/12/30 07:39:11;;;;;;;17.15;3.20;;;4.50;99.90;;;;;;5158117;27;20110;-58
2022/12/30 07:41:36;;;;;;;12.80;2.75;;;4.50;99.90;;;;;;5157535;27;20046;-59
2022/12/30 07:44:02;;;;;;;11.40;2.60;;;4.70;99.90;;;;;;5158065;27;20039;-58
2022/12/30 07:46:27;;;;;;;15.85;3.22;;;4.60;99.90;;;;;;5157791;27;20067;-59
2022/12/30 07:48:53;;;;;;;15.18;2.92;;;4.60;99.90;;;;;;5156027;27;20043;-57
2022/12/30 07:51:19;;;;;;;10.18;2.70;;;4.40;99.90;;;;;;5157668;27;20073;-57
2022/12/30 07:53:45;;;;;;;16.48;2.63;;;4.50;99.90;;;;;;5137647;27;20132;-58
2022/12/30 07:56:13;;;;;;;16.08;3.30;;;4.60;99.90;;;;;;5143732;27;20043;-58
2022/12/30 07:58:39;;;;;;;13.50;2.58;;;4.40;99.90;;;;;;5136386;27;20564;-58
2022/12/30 08:01:08;;;;;;;12.65;3.10;;;4.50;99.90;;;;;;5137209;27;20075;-58
2022/12/30 08:03:34;;;;;;;19.75;3.05;;;4.50;99.90;;;;;;5117648;27;20075;-59
2022/12/30 08:06:06;;;;;;;12.27;2.90;;;4.50;99.90;;;;;;5136970;27;20039;-58
2022/12/30 08:08:33;;;;;;;15.50;2.65;;;4.50;99.90;;;;;;5120997;27;20050;-58
2022/12/30 08:10:59;;;;;;;10.00;2.58;;;4.50;99.90;;;;;;5156951;27;20106;-58
2022/12/30 08:13:25;;;;;;;18.50;3.55;;;4.70;99.90;;;;;;5157046;27;20075;-57
2022/12/30 08:15:51;;;;;;;9.93;3.45;;;4.70;99.90;;;;;;5157037;27;20043;-58
2022/12/30 08:18:17;;;;;;;13.82;3.03;;;5.10;99.90;;;;;;5155234;27;20055;-57
2022/12/30 08:20:43;;;;;;;14.43;2.75;;;4.70;99.90;;;;;;5156637;27;20118;-57
2022/12/30 08:23:08;;;;;;;15.90;3.22;;;4.60;99.90;;;;;;5149908;27;20062;-58
2022/12/30 08:25:34;;;;;;;12.95;2.72;;;4.70;99.90;;;;;;5138310;27;20476;-57
2022/12/30 08:28:00;;;;;;;14.50;3.08;;;4.70;99.90;;;;;;5119855;27;20043;-56
2022/12/30 08:30:27;;;;;;;12.20;2.40;;;4.50;99.90;;;;;;5120602;27;20099;-57
2022/12/30 08:32:52;;;;;;;15.57;3.30;;;4.80;99.90;;;;;;5138262;27;20078;-56
2022/12/30 08:35:18;;;;;;;15.90;3.38;;;4.50;99.90;;;;;;5139609;27;20039;-57
2022/12/30 08:37:44;;;;;;;12.68;2.80;;;4.60;99.90;;;;;;5147789;27;20438;-57
2022/12/30 08:40:11;;;;;;;14.18;2.58;;;4.70;99.90;;;;;;5149736;27;20087;-58
2022/12/30 08:42:37;;;;;;;21.83;3.38;;;4.60;99.90;;;;;;5148660;27;20095;-57
2022/12/30 08:45:07;;;;;;;20.73;3.30;;;4.80;99.90;;;;;;5147592;27;20380;-56
2022/12/30 08:47:34;;;;;;;12.75;2.72;;;4.80;99.90;;;;;;5147506;27;20043;-57
2022/12/30 08:50:00;;;;;;;15.48;2.90;;;4.70;99.90;;;;;;5147451;27;20035;-57
2022/12/30 08:52:27;;;;;;;9.65;2.88;;;4.70;99.90;;;;;;5147938;27;20088;-56
2022/12/30 08:54:53;;;;;;;22.98;3.50;;;4.80;99.90;;;;;;5148387;27;20066;-58
2022/12/30 08:57:19;;;;;;;15.45;2.70;;;4.80;99.90;;;;;;5159652;27;20147;-57
2022/12/30 08:59:45;;;;;;;15.65;2.95;;;4.90;99.90;;;;;;5157678;27;20152;-57
2022/12/30 09:02:12;;;;;;;14.80;3.25;;;5.00;99.90;;;;;;5159056;27;20085;-58
2022/12/30 09:04:38;;;;;;;12.52;2.90;;;4.80;99.90;;;;;;5136601;27;20039;-58
2022/12/30 09:07:03;;;;;;;13.70;3.03;;;5.00;99.90;;;;;;5139926;27;20469;-57
2022/12/30 09:09:29;;;;;;;13.02;3.35;;;5.00;99.90;;;;;;5139047;27;20040;-57
2022/12/30 09:11:55;;;;;;;18.77;3.42;;;4.90;99.90;;;;;;5148042;27;20039;-58
2022/12/30 09:14:22;;;;;;;14.52;3.65;;;4.80;99.90;;;;;;5159512;27;20042;-57
2022/12/30 09:16:48;;;;;;;18.05;3.33;;;5.00;99.90;;;;;;5159183;27;20085;-57
2022/12/30 09:19:15;;;;;;;13.85;3.33;;;4.90;99.90;;;;;;5140316;27;20066;-57
2022/12/30 09:21:41;;;;;;;19.92;3.88;;;4.80;99.90;;;;;;5157392;27;20043;-58
2022/12/30 09:24:06;;;;;;;18.02;3.10;;;5.10;99.90;;;;;;5148093;27;20095;-58
2022/12/30 09:26:32;;;;;;;11.98;2.60;;;5.00;99.90;;;;;;5138662;27;20036;-57
2022/12/30 09:28:58;;;;;;;13.93;2.55;;;4.90;99.90;;;;;;5137668;28;20051;-58
2022/12/30 09:31:25;;;;;;;11.48;3.47;;;5.10;99.90;;;;;;5120453;28;20086;-57
2022/12/30 09:33:51;;;;;;;13.27;3.17;;;5.00;99.90;;;;;;5102662;28;20040;-57
2022/12/30 09:36:17;;;;;;;18.02;3.15;;;5.10;99.90;;;;;;5119637;28;20043;-57
2022/12/30 09:38:43;;;;;;;29.40;16.77;;;5.20;99.90;;;;;;5138548;28;20050;-57
2022/12/30 09:43:14;;;;;;;14.13;3.05;;;5.00;99.90;;;;;;5138039;28;20099;-57
2022/12/30 09:44:39;;;;;;;12.60;3.80;;;5.20;99.90;;;;;;5138465;28;20073;-57
2022/12/30 09:47:21;;;;;;;13.70;3.10;;;5.30;99.90;;;;;;5119326;28;20047;-56
2022/12/30 09:49:53;;;;;;;12.60;3.08;;;5.20;99.90;;;;;;5120236;27;20060;-58
2022/12/30 09:52:37;;;;;;;12.80;2.75;;;4.80;99.90;;;;;;5142368;27;20064;-58
2022/12/30 09:55:18;;;;;;;10.23;2.92;;;5.30;99.90;;;;;;5149624;27;20090;-57
2022/12/30 09:57:48;;;;;;;15.52;3.28;;;5.40;99.90;;;;;;5141981;27;20522;-57
2022/12/30 10:00:20;;;;;;;10.30;2.67;;;5.40;99.90;;;;;;5142369;27;20071;-57
2022/12/30 10:03:12;;;;;;;12.85;2.42;;;5.50;99.90;;;;;;5142040;27;20043;-57
2022/12/30 10:05:56;;;;;;;13.00;4.10;;;5.60;99.90;;;;;;5143598;27;20081;-57
2022/12/30 10:09:00;;;;;;;11.75;3.10;;;5.60;99.90;;;;;;5143306;27;20038;-57
2022/12/30 10:11:47;;;;;;;10.95;2.65;;;5.50;99.90;;;;;;5096936;27;20080;-58
2022/12/30 10:14:19;;;;;;;13.10;2.55;;;5.70;99.90;;;;;;5138014;27;20048;-57
2022/12/30 10:17:02;;;;;;;13.43;3.05;;;5.50;99.90;;;;;;5150312;27;20063;-58
2022/12/30 10:19:49;;;;;;;13.27;2.63;;;5.80;99.90;;;;;;5142112;27;20055;-57
2022/12/30 10:22:40;;;;;;;13.07;3.75;;;5.80;99.90;;;;;;5162878;27;20615;-57
2022/12/30 10:25:12;;;;;;;10.60;2.97;;;5.60;99.90;;;;;;5162435;27;20046;-57
2022/12/30 10:27:49;;;;;;;13.50;3.08;;;5.70;99.90;;;;;;5158056;27;20043;-58
2022/12/30 10:30:21;;;;;;;10.02;2.85;;;5.70;99.90;;;;;;5153412;27;20076;-58
2022/12/30 10:32:53;;;;;;;10.17;3.33;;;5.90;99.90;;;;;;5141458;27;20040;-57
2022/12/30 10:35:22;;;;;;;7.82;2.17;;;5.80;99.90;;;;;;5152474;27;20163;-59
2022/12/30 10:37:54;;;;;;;13.60;3.15;;;5.80;99.90;;;;;;5142724;27;20063;-57
2022/12/30 10:40:24;;;;;;;10.88;2.50;;;5.90;99.90;;;;;;5145284;27;20054;-57
2022/12/30 10:43:38;;;;;;;11.23;3.22;;;6.10;99.90;;;;;;5151934;27;20487;-57
2022/12/30 10:46:17;;;;;;;10.68;2.53;;;6.10;99.90;;;;;;5081995;27;20296;-57
2022/12/30 10:49:01;;;;;;;11.75;2.90;;;6.20;99.90;;;;;;5152210;27;20039;-57
2022/12/30 10:51:28;;;;;;;11.55;2.47;;;6.20;99.90;;;;;;5152481;27;20498;-57
2022/12/30 10:53:55;;;;;;;10.38;2.60;;;6.30;99.90;;;;;;5149711;27;20130;-57
2022/12/30 10:56:39;;;;;;;11.05;2.65;;;6.30;99.90;;;;;;5148436;27;20089;-58
2022/12/30 10:59:27;;;;;;;7.88;2.58;;;6.40;99.90;;;;;;5149266;27;20085;-58
2022/12/30 11:02:00;;;;;;;9.18;2.30;;;6.40;99.90;;;;;;5157642;27;20043;-57
2022/12/30 11:04:40;;;;;;;12.07;2.88;;;6.40;99.90;;;;;;5140680;27;20039;-57
2022/12/30 11:07:10;;;;;;;10.88;3.50;;;6.40;99.90;;;;;;5141096;27;20031;-58
2022/12/30 11:09:37;;;;;;;11.70;2.78;;;6.30;99.90;;;;;;5137120;27;20047;-57
2022/12/30 11:15:10;;;;;;;12.60;2.33;;;6.30;99.90;;;;;;5142032;27;20039;-57
2022/12/30 11:17:50;;;;;;;8.02;2.03;;;6.30;99.90;;;;;;5148639;27;20055;-58
2022/12/30 11:20:15;;;;;;;11.82;2.15;;;6.30;99.90;;;;;;5145452;27;20078;-57
2022/12/30 11:22:49;;;;;;;12.00;2.58;;;6.30;99.90;;;;;;5146369;27;20120;-57
2022/12/30 11:25:30;;;;;;;13.32;2.78;;;6.50;99.90;;;;;;5145701;27;20068;-58
2022/12/30 11:27:59;;;;;;;8.43;2.38;;;6.40;99.90;;;;;;5151525;27;20069;-57
2022/12/30 11:30:33;;;;;;;9.27;2.20;;;6.50;99.90;;;;;;5140170;27;20051;-57
2022/12/30 11:33:06;;;;;;;10.00;2.15;;;6.50;99.90;;;;;;5150011;27;20068;-57
2022/12/30 11:35:35;;;;;;;9.75;2.00;;;6.50;99.90;;;;;;5104687;27;20037;-57
2022/12/30 11:38:03;;;;;;;8.95;2.00;;;6.50;99.90;;;;;;5145034;27;20428;-57
2022/12/30 11:40:36;;;;;;;11.45;2.35;;;6.50;99.90;;;;;;5148412;27;20091;-58
2022/12/30 11:43:16;;;;;;;8.95;3.00;;;6.60;99.90;;;;;;5143954;27;20053;-57
2022/12/30 11:45:54;;;;;;;9.07;1.77;;;6.60;99.90;;;;;;5149888;27;20035;-57
2022/12/30 11:48:48;;;;;;;9.55;3.15;;;6.80;99.90;;;;;;5126634;27;20051;-57
2022/12/30 11:51:19;;;;;;;10.30;2.10;;;6.70;99.90;;;;;;5106838;27;20072;-57
2022/12/30 11:53:45;;;;;;;7.32;2.00;;;6.80;99.90;;;;;;5139691;27;20055;-58
2022/12/30 11:56:11;;;;;;;7.22;1.90;;;6.90;99.90;;;;;;5142121;27;20043;-57
2022/12/30 11:58:39;;;;;;;7.43;2.42;;;6.90;99.90;;;;;;5143008;27;20043;-57
2022/12/30 12:01:11;;;;;;;8.90;1.58;;;6.90;99.90;;;;;;5152237;27;20062;-58
2022/12/30 12:03:55;;;;;;;9.70;1.90;;;6.90;99.90;;;;;;5142521;27;20062;-56
2022/12/30 12:06:21;;;;;;;6.95;1.77;;;6.90;99.90;;;;;;5139910;27;20046;-57
2022/12/30 12:09:14;;;;;;;5.53;1.42;;;7.00;99.90;;;;;;5143784;27;20038;-57
2022/12/30 12:11:44;;;;;;;11.15;2.45;;;7.00;99.90;;;;;;5111359;27;20130;-56
2022/12/30 12:14:29;;;;;;;8.02;1.90;;;7.10;99.90;;;;;;5142567;27;20399;-57
2022/12/30 12:17:24;;;;;;;9.65;1.63;;;7.00;99.90;;;;;;5156754;27;20063;-57
2022/12/30 12:20:00;;;;;;;6.03;1.23;;;7.10;99.90;;;;;;5141897;27;20042;-57
2022/12/30 12:22:42;;;;;;;8.45;1.80;;;7.20;99.90;;;;;;5126634;27;20158;-57
2022/12/30 12:25:24;;;;;;;9.20;1.90;;;7.20;99.90;;;;;;5152723;27;20083;-57
2022/12/30 12:27:51;;;;;;;9.45;1.80;;;7.20;99.90;;;;;;5143930;27;20031;-56
2022/12/30 12:30:17;;;;;;;10.88;1.73;;;7.30;99.90;;;;;;5149224;27;20042;-57
2022/12/30 12:32:46;;;;;;;8.25;1.52;;;7.20;99.90;;;;;;5148157;27;20091;-57
2022/12/30 12:35:23;;;;;;;6.47;1.85;;;7.20;99.90;;;;;;5140372;27;20732;-57
2022/12/30 12:38:07;;;;;;;8.85;1.90;;;7.30;99.90;;;;;;5138642;27;20038;-57
2022/12/30 12:41:17;;;;;;;9.05;2.08;;;7.30;99.90;;;;;;5129871;27;21406;-57
2022/12/30 12:43:43;;;;;;;6.35;1.60;;;7.30;99.90;;;;;;5036939;28;20072;-57
2022/12/30 12:46:24;;;;;;;5.18;1.42;;;7.40;99.90;;;;;;5052651;28;20044;-57
2022/12/30 12:49:20;;;;;;;9.77;2.22;;;7.40;99.90;;;;;;5102617;27;20043;-57
2022/12/30 12:52:04;;;;;;;7.88;2.50;;;7.40;99.90;;;;;;5138709;27;20072;-57
2022/12/30 12:54:33;;;;;;;5.65;1.58;;;7.50;99.90;;;;;;5152385;27;20107;-57
2022/12/30 12:57:03;;;;;;;5.85;1.58;;;7.50;99.90;;;;;;5136191;27;20031;-57
2022/12/30 12:59:53;;;;;;;7.63;1.58;;;7.70;99.90;;;;;;5151354;27;20035;-58
2022/12/30 13:02:25;;;;;;;5.70;1.70;;;7.60;99.90;;;;;;5135703;27;20057;-56
2022/12/30 13:05:09;;;;;;;5.35;1.88;;;7.60;99.90;;;;;;5156073;27;20047;-57
2022/12/30 13:08:05;;;;;;;7.53;1.38;;;7.60;99.90;;;;;;5138451;27;20104;-57
2022/12/30 13:10:37;;;;;;;9.07;1.50;;;7.60;99.90;;;;;;5137265;27;20039;-57
2022/12/30 13:13:18;;;;;;;7.22;1.65;;;7.60;99.90;;;;;;5138653;27;20051;-57
2022/12/30 13:15:56;;;;;;;8.57;2.10;;;7.60;99.90;;;;;;5138077;27;20037;-57
2022/12/30 13:18:24;;;;;;;8.95;2.78;;;7.70;99.90;;;;;;5152421;27;20051;-57
2022/12/30 13:20:56;;;;;;;6.93;1.67;;;7.70;99.90;;;;;;5140656;27;20114;-56
2022/12/30 13:23:26;;;;;;;6.35;1.60;;;7.80;99.90;;;;;;5157421;27;20042;-56
2022/12/30 13:25:58;;;;;;;8.05;2.00;;;7.70;99.90;;;;;;5144714;27;20129;-57
2022/12/30 13:28:26;;;;;;;9.32;4.20;;;7.70;99.90;;;;;;5148079;27;20053;-57
2022/12/30 13:31:01;;;;;;;8.27;2.22;;;7.80;99.90;;;;;;5128540;27;20068;-56
2022/12/30 13:33:45;;;;;;;9.07;2.15;;;7.80;99.90;;;;;;5137326;28;20073;-57
2022/12/30 13:36:20;;;;;;;9.07;2.13;;;7.80;99.90;;;;;;5138085;28;20068;-57
2022/12/30 13:39:11;;;;;;;5.00;1.70;;;7.90;99.90;;;;;;5138596;28;20081;-56
2022/12/30 13:42:13;;;;;;;5.50;1.40;;;7.90;99.90;;;;;;5146953;27;20046;-57
2022/12/30 13:44:43;;;;;;;8.45;1.85;;;7.90;99.90;;;;;;5158823;27;20053;-56
2022/12/30 13:47:21;;;;;;;9.80;2.03;;;8.00;99.90;;;;;;5159382;27;20079;-57
2022/12/30 13:49:46;;;;;;;8.10;2.22;;;8.00;99.90;;;;;;5158476;27;20120;-58
2022/12/30 13:52:24;;;;;;;7.32;1.75;;;8.00;99.90;;;;;;5148036;27;20046;-56
2022/12/30 13:54:57;;;;;;;8.93;2.55;;;8.00;99.90;;;;;;5153108;27;20037;-57
2022/12/30 13:57:34;;;;;;;11.05;3.53;;;8.10;99.90;;;;;;5138235;28;20047;-57
2022/12/30 14:00:08;;;;;;;7.18;2.03;;;8.10;99.90;;;;;;5138539;28;20058;-56